Time;durP1;ratioP1;P1;durP2;ratioP2;P2;SDS_P1;SDS_P2;PMS_P1;PMS_P2;Temp;Humidity;BMP_temperature;BMP_pressure;BME280_temperature;BME280_humidity;BME280_pressure;Samples;Min_cycle;Max_cycle;Signal;HPM_P1;HPM_P2
2021/10/03 00:00:49;;;;;;;;;;;12.30;99.90;;;;;;5010316;28;19925;-73
2021/10/03 00:03:17;;;;;;;;;;;12.30;99.90;;;;;;5000914;28;20400;-72
2021/10/03 00:05:46;;;;;;;;;;;12.30;99.90;;;;;;5000533;28;19929;-72
2021/10/03 00:08:13;;;;;;;;;;;12.30;99.90;;;;;;5017474;28;20012;-73
2021/10/03 00:10:45;;;;;;;;;;;12.30;99.90;;;;;;5018575;28;19926;-73
2021/10/03 00:13:12;;;;;;;;;;;12.30;99.90;;;;;;5001106;28;19929;-73
2021/10/03 00:15:39;;;;;;;;;;;12.20;99.90;;;;;;5000787;28;20438;-73
2021/10/03 00:18:07;;;;;;;;;;;12.20;99.90;;;;;;5001068;28;19925;-73
2021/10/03 00:20:40;;;;;;;;;;;12.10;99.90;;;;;;5000735;28;19930;-73
2021/10/03 00:23:12;;;;;;;;;;;12.10;99.90;;;;;;5000225;28;19930;-73
2021/10/03 00:25:44;;;;;;;;;;;12.10;99.90;;;;;;5001679;28;19926;-73
2021/10/03 00:28:17;;;;;;;;;;;12.00;99.90;;;;;;5000693;28;19926;-73
2021/10/03 00:30:49;;;;;;;;;;;12.00;99.90;;;;;;5018197;28;19926;-73
2021/10/03 00:33:21;;;;;;;;;;;12.00;99.90;;;;;;5000716;28;19933;-73
2021/10/03 00:35:48;;;;;;;;;;;12.00;99.90;;;;;;5018285;28;20380;-73
2021/10/03 00:38:14;;;;;;;;;;;12.00;99.90;;;;;;5016969;28;19929;-74
2021/10/03 00:40:46;;;;;;;;;;;12.10;99.90;;;;;;5000775;28;20348;-73
2021/10/03 00:43:18;;;;;;;;;;;12.10;99.90;;;;;;5017121;28;19932;-73
2021/10/03 00:45:50;;;;;;;;;;;12.00;99.90;;;;;;5000440;28;19933;-73
2021/10/03 00:48:22;;;;;;;;;;;12.10;99.90;;;;;;5017299;28;20388;-73
2021/10/03 00:50:54;;;;;;;;;;;12.10;99.90;;;;;;5001615;28;19926;-73
2021/10/03 00:53:29;;;;;;;;;;;12.10;99.90;;;;;;5018188;28;19925;-73
2021/10/03 00:56:00;;;;;;;;;;;12.20;99.90;;;;;;5016775;28;19925;-73
2021/10/03 00:58:32;;;;;;;;;;;12.20;99.90;;;;;;4996822;28;19925;-73
2021/10/03 01:01:04;;;;;;;;;;;12.30;99.90;;;;;;4997032;28;20016;-74
2021/10/03 01:03:31;;;;;;;;;;;12.30;99.90;;;;;;4997016;28;20316;-73
2021/10/03 01:06:04;;;;;;;;;;;12.30;99.90;;;;;;4997312;28;20410;-74
2021/10/03 01:08:36;;;;;;;;;;;12.30;99.90;;;;;;4997358;28;19932;-73
2021/10/03 01:11:07;;;;;;;;;;;12.30;99.90;;;;;;5014903;28;19925;-73
2021/10/03 01:13:39;;;;;;;;;;;12.30;99.90;;;;;;5013433;28;20400;-73
2021/10/03 01:16:11;;;;;;;;;;;12.30;99.90;;;;;;5012815;28;20392;-73
2021/10/03 01:18:38;;;;;;;;;;;12.30;99.90;;;;;;5014205;28;19925;-73
2021/10/03 01:21:10;;;;;;;;;;;12.30;99.90;;;;;;5013040;28;19988;-73
2021/10/03 01:23:42;;;;;;;;;;;12.30;99.90;;;;;;5014012;28;19965;-73
2021/10/03 01:26:14;;;;;;;;;;;12.20;99.90;;;;;;4996094;28;19925;-73
2021/10/03 01:28:46;;;;;;;;;;;12.20;99.90;;;;;;4997960;28;20340;-72
2021/10/03 01:31:13;;;;;;;;;;;12.20;99.90;;;;;;4996775;28;19925;-73
2021/10/03 01:33:45;;;;;;;;;;;12.20;99.90;;;;;;5013374;28;20020;-72
2021/10/03 01:36:17;;;;;;;;;;;12.10;99.90;;;;;;4981032;28;20376;-73
2021/10/03 01:38:48;;;;;;;;;;;12.10;99.90;;;;;;5012997;28;20299;-73
2021/10/03 01:41:16;;;;;;;;;;;12.00;99.90;;;;;;4996772;28;20380;-73
2021/10/03 01:43:48;;;;;;;;;;;12.00;99.90;;;;;;5014208;28;19957;-73
2021/10/03 01:46:19;;;;;;;;;;;11.90;99.90;;;;;;5012865;28;20388;-72
2021/10/03 01:48:46;;;;;;;;;;;11.80;99.90;;;;;;4996672;28;20257;-72
2021/10/03 01:51:18;;;;;;;;;;;11.80;99.90;;;;;;5014571;28;19929;-72
2021/10/03 01:53:53;;;;;;;;;;;11.70;99.90;;;;;;4996493;28;19925;-72
2021/10/03 01:56:21;;;;;;;;;;;11.70;99.90;;;;;;5012555;28;19929;-72
2021/10/03 01:58:55;;;;;;;;;;;11.60;99.90;;;;;;5013990;28;19926;-72
2021/10/03 02:01:32;;;;;;;;;;;11.50;99.90;;;;;;4996464;28;19925;-72
2021/10/03 02:03:59;;;;;;;;;;;11.50;99.90;;;;;;5014012;28;20029;-72
2021/10/03 02:06:26;;;;;;;;;;;11.50;99.90;;;;;;5013657;28;19925;-72
2021/10/03 02:08:58;;;;;;;;;;;11.50;99.90;;;;;;5013595;28;19960;-73
2021/10/03 02:11:30;;;;;;;;;;;11.40;99.90;;;;;;5013796;28;19926;-73
2021/10/03 02:13:57;;;;;;;;;;;11.40;99.90;;;;;;4996335;28;19941;-73
2021/10/03 02:16:24;;;;;;;;;;;11.40;99.90;;;;;;4995793;28;19926;-73
2021/10/03 02:18:51;;;;;;;;;;;11.30;99.90;;;;;;4995980;28;20315;-73
2021/10/03 02:21:23;;;;;;;;;;;11.30;99.90;;;;;;4995997;28;19925;-72
2021/10/03 02:23:55;;;;;;;;;;;11.30;99.90;;;;;;4996016;28;19996;-73
2021/10/03 02:26:27;;;;;;;;;;;11.30;99.90;;;;;;4995743;28;19926;-73
2021/10/03 02:28:53;;;;;;;;;;;11.20;99.90;;;;;;4996007;28;20061;-73
2021/10/03 02:31:20;;;;;;;;;;;11.20;99.90;;;;;;5013205;28;19932;-73
2021/10/03 02:33:52;;;;;;;;;;;11.20;99.90;;;;;;4995690;28;20384;-73
2021/10/03 02:36:20;;;;;;;;;;;11.20;99.90;;;;;;5013232;28;20016;-73
2021/10/03 02:38:48;;;;;;;;;;;11.20;99.90;;;;;;4995458;28;19925;-73
2021/10/03 02:41:15;;;;;;;;;;;11.20;99.90;;;;;;4995801;28;19932;-73
2021/10/03 02:43:44;;;;;;;;;;;11.20;99.90;;;;;;4995499;28;19925;-73
2021/10/03 02:46:12;;;;;;;;;;;11.20;99.90;;;;;;4995353;28;19929;-73
2021/10/03 02:48:39;;;;;;;;;;;11.20;99.90;;;;;;4995517;28;20015;-73
2021/10/03 02:51:11;;;;;;;;;;;11.20;99.90;;;;;;5013020;28;19926;-73
2021/10/03 02:53:42;;;;;;;;;;;11.20;99.90;;;;;;4995444;28;19925;-73
2021/10/03 02:56:09;;;;;;;;;;;11.20;99.90;;;;;;4995020;28;19925;-73
2021/10/03 02:58:41;;;;;;;;;;;11.10;99.90;;;;;;4995299;28;19933;-73
2021/10/03 03:01:14;;;;;;;;;;;11.10;99.90;;;;;;4996062;28;19929;-73
2021/10/03 03:03:45;;;;;;;;;;;11.10;99.90;;;;;;4995285;28;19925;-73
2021/10/03 03:06:13;;;;;;;;;;;11.00;99.90;;;;;;5012550;28;19931;-73
2021/10/03 03:08:46;;;;;;;;;;;11.00;99.90;;;;;;5012807;28;19926;-73
2021/10/03 03:11:13;;;;;;;;;;;11.00;99.90;;;;;;5011484;28;19932;-73
2021/10/03 03:13:45;;;;;;;;;;;11.00;99.90;;;;;;5012908;28;19925;-72
2021/10/03 03:16:12;;;;;;;;;;;10.90;99.90;;;;;;5012217;28;19948;-73
2021/10/03 03:18:44;;;;;;;;;;;11.00;99.90;;;;;;5012638;28;19929;-73
2021/10/03 03:21:16;;;;;;;;;;;11.00;99.90;;;;;;4994178;28;19937;-73
2021/10/03 03:23:43;;;;;;;;;;;10.90;99.90;;;;;;4994954;28;19929;-72
2021/10/03 03:26:10;;;;;;;;;;;10.90;99.90;;;;;;5012146;28;19987;-72
2021/10/03 03:28:42;;;;;;;;;;;10.90;99.90;;;;;;5011445;28;20380;-72
2021/10/03 03:31:14;;;;;;;;;;;10.90;99.90;;;;;;4994779;28;20020;-72
2021/10/03 03:33:45;;;;;;;;;;;10.80;99.90;;;;;;5011445;28;19926;-72
2021/10/03 03:36:12;;;;;;;;;;;10.80;99.90;;;;;;4978394;28;19929;-72
2021/10/03 03:38:45;;;;;;;;;;;10.80;99.90;;;;;;5011448;28;19965;-72
2021/10/03 03:41:13;;;;;;;;;;;10.80;99.90;;;;;;5012264;28;19925;-72
2021/10/03 03:43:41;;;;;;;;;;;10.80;99.90;;;;;;4994621;28;19925;-72
2021/10/03 03:46:12;;;;;;;;;;;10.80;99.90;;;;;;4994419;28;20396;-72
2021/10/03 03:48:44;;;;;;;;;;;10.80;99.90;;;;;;5012286;28;19980;-72
2021/10/03 03:51:11;;;;;;;;;;;10.80;99.90;;;;;;4994597;28;20392;-72
2021/10/03 03:53:43;;;;;;;;;;;10.80;99.90;;;;;;4994683;28;19925;-72
2021/10/03 03:56:15;;;;;;;;;;;10.70;99.90;;;;;;4995209;28;19926;-72
2021/10/03 03:58:47;;;;;;;;;;;10.70;99.90;;;;;;4994780;28;19947;-72
2021/10/03 04:01:20;;;;;;;;;;;10.70;99.90;;;;;;4994338;28;19929;-72
2021/10/03 04:03:47;;;;;;;;;;;10.60;99.90;;;;;;5011105;28;19925;-72
2021/10/03 04:06:14;;;;;;;;;;;10.50;99.90;;;;;;4994383;28;19972;-72
2021/10/03 04:08:46;;;;;;;;;;;10.50;99.90;;;;;;4974233;28;19932;-72
2021/10/03 04:11:18;;;;;;;;;;;10.50;99.90;;;;;;4971108;28;19926;-72
2021/10/03 04:13:50;;;;;;;;;;;10.40;99.90;;;;;;4978275;28;20359;-72
2021/10/03 04:16:21;;;;;;;;;;;10.40;99.90;;;;;;4967078;28;20397;-72
2021/10/03 04:18:53;;;;;;;;;;;10.30;99.90;;;;;;4980184;28;19926;-72
2021/10/03 04:21:25;;;;;;;;;;;10.30;99.90;;;;;;4969624;28;19926;-72
2021/10/03 04:23:52;;;;;;;;;;;10.30;99.90;;;;;;4974679;28;19949;-72
2021/10/03 04:26:25;;;;;;;;;;;10.30;99.90;;;;;;4975409;28;19932;-72
2021/10/03 04:28:56;;;;;;;;;;;10.30;99.90;;;;;;4992311;28;19934;-72
2021/10/03 04:31:28;;;;;;;;;;;10.30;99.90;;;;;;4990869;28;19933;-72
2021/10/03 04:34:01;;;;;;;;;;;10.20;99.90;;;;;;4979208;28;19932;-72
2021/10/03 04:36:27;;;;;;;;;;;10.20;99.90;;;;;;4978218;28;20274;-72
2021/10/03 04:38:54;;;;;;;;;;;10.10;99.90;;;;;;4978330;28;19926;-72
2021/10/03 04:41:21;;;;;;;;;;;10.10;99.90;;;;;;4962209;28;19932;-72
2021/10/03 04:43:53;;;;;;;;;;;10.10;99.90;;;;;;4979011;28;19932;-72
2021/10/03 04:46:24;;;;;;;;;;;10.10;99.90;;;;;;4978789;28;19998;-72
2021/10/03 04:48:51;;;;;;;;;;;10.10;99.90;;;;;;4978267;28;19926;-72
2021/10/03 04:51:18;;;;;;;;;;;10.00;99.90;;;;;;4978191;28;19929;-72
2021/10/03 04:53:50;;;;;;;;;;;9.90;99.90;;;;;;4978905;28;19981;-72
2021/10/03 04:56:21;;;;;;;;;;;9.90;99.90;;;;;;4978902;28;19981;-72
2021/10/03 04:58:54;;;;;;;;;;;9.90;99.90;;;;;;4995646;28;19926;-72
2021/10/03 05:01:21;;;;;;;;;;;9.90;99.90;;;;;;4995232;28;19926;-72
2021/10/03 05:03:52;;;;;;;;;;;9.80;99.90;;;;;;4978779;28;19933;-72
2021/10/03 05:06:26;;;;;;;;;;;9.90;99.90;;;;;;4978656;28;19929;-72
2021/10/03 05:08:53;;;;;;;;;;;9.90;99.90;;;;;;4978118;28;20033;-72
2021/10/03 05:11:25;;;;;;;;;;;9.90;99.90;;;;;;4995288;28;19926;-72
2021/10/03 05:13:52;;;;;;;;;;;9.90;99.90;;;;;;4994102;28;19932;-72
2021/10/03 05:16:23;;;;;;;;;;;9.90;99.90;;;;;;4994598;28;19925;-72
2021/10/03 05:18:55;;;;;;;;;;;9.80;99.90;;;;;;4994146;28;19925;-72
2021/10/03 05:21:27;;;;;;;;;;;9.80;99.90;;;;;;4994949;28;19933;-72
2021/10/03 05:23:59;;;;;;;;;;;9.80;99.90;;;;;;4977707;28;19933;-72
2021/10/03 05:26:31;;;;;;;;;;;9.70;99.90;;;;;;4994806;28;19925;-72
2021/10/03 05:29:02;;;;;;;;;;;9.70;99.90;;;;;;4978396;28;20312;-72
2021/10/03 05:31:34;;;;;;;;;;;9.70;99.90;;;;;;4977445;28;19926;-72
2021/10/03 05:34:01;;;;;;;;;;;9.70;99.90;;;;;;4977371;28;20392;-72
2021/10/03 05:36:33;;;;;;;;;;;9.60;99.90;;;;;;4977417;28;20419;-72
2021/10/03 05:39:05;;;;;;;;;;;9.70;99.90;;;;;;4977410;28;20385;-72
2021/10/03 05:41:31;;;;;;;;;;;9.70;99.90;;;;;;4977271;28;19926;-72
2021/10/03 05:44:04;;;;;;;;;;;9.60;99.90;;;;;;4976380;28;20388;-72
2021/10/03 05:46:31;;;;;;;;;;;9.60;99.90;;;;;;4994415;28;19936;-72
2021/10/03 05:49:03;;;;;;;;;;;9.60;99.90;;;;;;4977208;28;20411;-72
2021/10/03 05:51:35;;;;;;;;;;;9.60;99.90;;;;;;4977885;28;20588;-72
2021/10/03 05:54:08;;;;;;;;;;;9.60;99.90;;;;;;4994122;28;19925;-72
2021/10/03 05:56:40;;;;;;;;;;;9.60;99.90;;;;;;4977108;28;19957;-72
2021/10/03 05:59:12;;;;;;;;;;;9.60;99.90;;;;;;4977035;28;19933;-72
2021/10/03 06:01:44;;;;;;;;;;;9.60;99.90;;;;;;4976800;28;19978;-72
2021/10/03 06:04:16;;;;;;;;;;;9.70;99.90;;;;;;4994091;28;19930;-72
2021/10/03 06:06:42;;;;;;;;;;;9.70;99.90;;;;;;4976696;28;19933;-72
2021/10/03 06:09:09;;;;;;;;;;;9.80;99.90;;;;;;4976896;28;19952;-72
2021/10/03 06:11:41;;;;;;;;;;;9.80;99.90;;;;;;4994119;28;19933;-72
2021/10/03 06:14:13;;;;;;;;;;;9.90;99.90;;;;;;4961197;28;20404;-72
2021/10/03 06:16:42;;;;;;;;;;;9.90;99.90;;;;;;4976656;28;20355;-72
2021/10/03 06:19:10;;;;;;;;;;;9.90;99.90;;;;;;4975806;28;19934;-72
2021/10/03 06:21:42;;;;;;;;;;;9.90;99.90;;;;;;4998223;28;19925;-73
2021/10/03 06:24:09;;;;;;;;;;;9.90;99.90;;;;;;4984370;28;19953;-72
2021/10/03 06:26:36;;;;;;;;;;;10.00;99.90;;;;;;4990103;28;19926;-72
2021/10/03 06:29:03;;;;;;;;;;;10.00;99.90;;;;;;4995172;28;19941;-72
2021/10/03 06:31:30;;;;;;;;;;;10.10;99.90;;;;;;4976324;28;19930;-72
2021/10/03 06:34:02;;;;;;;;;;;10.10;99.90;;;;;;4993218;28;19926;-72
2021/10/03 06:36:34;;;;;;;;;;;10.20;99.90;;;;;;5009414;28;20408;-72
2021/10/03 06:39:05;;;;;;;;;;;10.30;99.90;;;;;;4997445;28;20273;-72
2021/10/03 06:41:37;;;;;;;;;;;10.30;99.90;;;;;;4987124;28;19930;-71
2021/10/03 06:44:11;;;;;;;;;;;10.40;99.90;;;;;;5005449;28;19936;-73
2021/10/03 06:46:38;;;;;;;;;;;10.50;99.90;;;;;;4995641;28;19929;-73
2021/10/03 06:49:05;;;;;;;;;;;10.60;99.90;;;;;;4995683;28;20304;-73
2021/10/03 06:51:37;;;;;;;;;;;10.70;99.90;;;;;;4995570;28;19930;-73
2021/10/03 06:54:10;;;;;;;;;;;10.80;99.90;;;;;;4994848;28;19929;-73
2021/10/03 06:56:42;;;;;;;;;;;10.90;99.90;;;;;;4985270;28;19934;-74
2021/10/03 06:59:08;;;;;;;;;;;11.00;99.90;;;;;;4967951;28;19976;-74
2021/10/03 07:01:36;;;;;;;;;;;11.00;99.90;;;;;;4988058;28;19986;-72
2021/10/03 07:04:03;;;;;;;;;;;11.00;99.90;;;;;;5001224;28;19980;-71
2021/10/03 07:06:30;;;;;;;;;;;11.10;99.90;;;;;;4980806;28;19932;-73
2021/10/03 07:09:02;;;;;;;;;;;11.10;99.90;;;;;;4981019;28;19926;-74
2021/10/03 07:11:28;;;;;;;;;;;11.20;99.90;;;;;;5006081;28;19925;-74
2021/10/03 07:13:55;;;;;;;;;;;11.30;99.90;;;;;;4983867;28;19980;-74
2021/10/03 07:16:22;;;;;;;;;;;11.30;99.90;;;;;;4962022;28;19926;-72
2021/10/03 07:18:54;;;;;;;;;;;11.40;99.90;;;;;;4958515;28;20389;-74
2021/10/03 07:21:20;;;;;;;;;;;11.40;99.90;;;;;;4991167;28;20017;-73
2021/10/03 07:23:52;;;;;;;;;;;11.50;99.90;;;;;;4993810;28;20145;-74
2021/10/03 07:26:24;;;;;;;;;;;11.50;99.90;;;;;;4994586;28;19998;-74
2021/10/03 07:28:50;;;;;;;;;;;11.60;99.90;;;;;;4994319;28;19930;-74
2021/10/03 07:31:22;;;;;;;;;;;11.60;99.90;;;;;;4973943;28;20044;-74
2021/10/03 07:33:54;;;;;;;;;;;11.70;99.90;;;;;;4975591;28;19987;-73
2021/10/03 07:36:26;;;;;;;;;;;11.80;99.90;;;;;;4965463;28;19934;-73
2021/10/03 07:38:52;;;;;;;;;;;11.90;99.90;;;;;;4993407;28;20377;-73
2021/10/03 07:41:24;;;;;;;;;;;12.00;99.90;;;;;;4978112;28;19930;-74
2021/10/03 07:43:56;;;;;;;;;;;12.10;99.90;;;;;;4988593;28;19926;-74
2021/10/03 07:46:23;;;;;;;;;;;12.20;99.90;;;;;;4980981;28;19980;-73
2021/10/03 07:48:50;;;;;;;;;;;12.30;99.90;;;;;;4990645;28;19930;-73
2021/10/03 07:51:16;;;;;;;;;;;12.40;99.90;;;;;;4974419;28;19926;-73
2021/10/03 07:53:43;;;;;;;;;;;12.50;99.90;;;;;;4988609;28;19926;-72
2021/10/03 07:56:15;;;;;;;;;;;12.60;99.90;;;;;;4967175;28;19932;-73
2021/10/03 07:58:47;;;;;;;;;;;12.60;99.90;;;;;;5011582;28;19929;-72
2021/10/03 08:01:19;;;;;;;;;;;12.70;99.90;;;;;;5009655;28;20073;-72
2021/10/03 08:03:50;;;;;;;;;;;12.80;99.90;;;;;;4993968;28;19930;-74
2021/10/03 08:06:22;;;;;;;;;;;12.90;99.90;;;;;;4993691;28;19957;-74
2021/10/03 08:08:49;;;;;;;;;;;13.00;99.90;;;;;;4982026;28;20382;-73
2021/10/03 08:11:16;;;;;;;;;;;13.20;99.90;;;;;;4997760;28;20032;-74
2021/10/03 08:13:42;;;;;;;;;;;13.30;99.90;;;;;;4998533;28;20016;-74
2021/10/03 08:16:15;;;;;;;;;;;13.50;99.90;;;;;;5014803;28;19925;-73
2021/10/03 08:18:47;;;;;;;;;;;13.60;99.90;;;;;;5004148;28;19948;-73
2021/10/03 08:21:14;;;;;;;;;;;13.80;99.90;;;;;;4998045;28;19981;-73
2021/10/03 08:23:46;;;;;;;;;;;14.00;99.90;;;;;;4992384;28;19926;-73
2021/10/03 08:26:15;;;;;;;;;;;14.20;99.90;;;;;;4993198;28;19926;-73
2021/10/03 08:28:46;;;;;;;;;;;14.40;99.90;;;;;;4977339;28;19961;-72
2021/10/03 08:31:13;;;;;;;;;;;14.60;99.90;;;;;;4976623;28;20476;-73
2021/10/03 08:33:45;;;;;;;;;;;14.70;99.90;;;;;;4976538;28;19926;-73
2021/10/03 08:36:12;;;;;;;;;;;14.80;99.90;;;;;;4993398;28;20296;-72
2021/10/03 08:38:43;;;;;;;;;;;15.00;99.90;;;;;;4994227;28;19929;-73
2021/10/03 08:41:17;;;;;;;;;;;15.10;99.90;;;;;;4976639;28;19925;-73
2021/10/03 08:43:52;;;;;;;;;;;15.30;99.90;;;;;;4973862;28;19933;-73
2021/10/03 08:46:24;;;;;;;;;;;15.40;99.90;;;;;;4981104;28;19926;-73
2021/10/03 08:48:52;;;;;;;;;;;15.50;99.90;;;;;;5002187;28;19944;-72
2021/10/03 08:51:24;;;;;;;;;;;15.60;99.90;;;;;;4970558;28;19932;-73
2021/10/03 08:53:51;;;;;;;;;;;15.80;99.90;;;;;;4992193;28;19937;-73
2021/10/03 08:56:18;;;;;;;;;;;16.00;99.90;;;;;;4997015;28;19933;-73
2021/10/03 08:58:46;;;;;;;;;;;16.20;99.90;;;;;;4996973;28;19932;-73
2021/10/03 09:01:13;;;;;;;;;;;16.30;99.90;;;;;;4996887;28;19926;-73
2021/10/03 09:03:45;;;;;;;;;;;16.40;99.90;;;;;;4996913;28;19929;-73
2021/10/03 09:06:17;;;;;;;;;;;16.50;99.90;;;;;;4981249;28;19980;-73
2021/10/03 09:08:52;;;;;;;;;;;16.70;99.90;;;;;;4997373;28;20296;-73
2021/10/03 09:11:24;;;;;;;;;;;16.80;99.90;;;;;;4981744;28;20292;-73
2021/10/03 09:13:56;;;;;;;;;;;17.00;99.90;;;;;;5014897;28;19926;-73
2021/10/03 09:16:33;;;;;;;;;;;17.10;99.90;;;;;;4996762;28;19930;-73
2021/10/03 09:19:01;;;;;;;;;;;17.30;99.90;;;;;;5013391;28;19925;-73
2021/10/03 09:21:36;;;;;;;;;;;17.50;99.90;;;;;;5014308;28;19926;-73
2021/10/03 09:24:11;;;;;;;;;;;17.70;99.90;;;;;;4997452;28;19933;-73
2021/10/03 09:27:03;;;;;;;;;;;17.90;99.90;;;;;;4997165;28;19929;-73
2021/10/03 09:29:36;;;;;;;;;;;18.10;99.90;;;;;;4981109;28;19926;-73
2021/10/03 09:32:12;;;;;;;;;;;18.30;99.90;;;;;;4997466;28;19925;-73
2021/10/03 09:34:47;;;;;;;;;;;18.40;99.90;;;;;;4996123;28;19937;-73
2021/10/03 09:37:22;;;;;;;;;;;18.50;99.90;;;;;;4996676;28;19926;-73
2021/10/03 09:40:04;;;;;;;;;;;18.60;99.90;;;;;;5012458;28;20349;-73
2021/10/03 09:42:36;;;;;;;;;;;18.70;99.90;;;;;;4996419;28;20017;-73
2021/10/03 09:45:10;;;;;;;;;;;18.80;99.90;;;;;;4995769;28;19926;-73
2021/10/03 09:47:38;;;;;;;;;;;18.90;99.90;;;;;;5013792;28;19957;-73
2021/10/03 09:50:12;;;;;;;;;;;19.00;99.90;;;;;;4997035;28;19963;-73
2021/10/03 09:52:40;;;;;;;;;;;19.20;99.90;;;;;;5013718;28;19930;-73
2021/10/03 09:55:17;;;;;;;;;;;19.30;99.90;;;;;;4995793;28;20442;-73
2021/10/03 09:57:44;;;;;;;;;;;19.40;99.90;;;;;;4996305;28;20304;-73
2021/10/03 10:00:15;;;;;;;;;;;19.50;99.90;;;;;;4980152;28;20437;-73
2021/10/03 10:02:46;;;;;;;;;;;19.60;99.90;;;;;;4995820;28;19935;-73
2021/10/03 10:05:13;;;;;;;;;;;19.70;99.90;;;;;;5013765;28;19984;-73
2021/10/03 10:07:40;;;;;;;;;;;19.80;99.90;;;;;;4996243;28;19972;-73
2021/10/03 10:10:12;;;;;;;;;;;19.90;99.90;;;;;;4995940;28;19932;-73
2021/10/03 10:13:04;;;;;;;;;;;20.00;99.90;;;;;;5013353;28;19933;-73
2021/10/03 10:15:30;;;;;;;;;;;20.00;99.90;;;;;;4995843;28;19937;-73
2021/10/03 10:18:22;;;;;;;;;;;20.10;99.90;;;;;;4995873;28;20316;-73
2021/10/03 10:20:49;;;;;;;;;;;20.10;99.90;;;;;;4995612;28;19980;-72
2021/10/03 10:23:28;;;;;;;;;;;20.20;99.90;;;;;;5013278;28;20463;-73
2021/10/03 10:25:57;;;;;;;;;;;20.20;99.90;;;;;;5011488;28;20419;-74
2021/10/03 10:28:30;;;;;;;;;;;20.20;99.90;;;;;;4995841;28;20396;-73
2021/10/03 10:31:04;;;;;;;;;;;20.20;99.90;;;;;;4995291;28;19930;-74
2021/10/03 10:33:49;;;;;;;;;;;20.40;99.90;;;;;;4995413;28;19936;-74
2021/10/03 10:36:26;;;;;;;;;;;20.50;99.90;;;;;;4979571;28;19929;-74
2021/10/03 10:39:07;;;;;;;;;;;20.80;99.90;;;;;;4979905;28;19929;-74
2021/10/03 10:41:44;;;;;;;;;;;21.00;99.90;;;;;;4994837;28;20020;-74
2021/10/03 10:44:29;;;;;;;;;;;21.20;99.90;;;;;;4994605;28;20367;-73
2021/10/03 10:46:57;;;;;;;;;;;21.30;99.90;;;;;;4995407;28;19941;-74
2021/10/03 10:49:28;;;;;;;;;;;21.30;99.90;;;;;;4995578;28;20023;-74
2021/10/03 10:52:14;;;;;;;;;;;21.50;99.90;;;;;;4994823;28;20351;-74
2021/10/03 10:55:01;;;;;;;;;;;21.70;99.90;;;;;;4994536;28;19929;-74
2021/10/03 10:57:53;;;;;;;;;;;21.90;99.90;;;;;;4995639;28;19948;-73
2021/10/03 11:00:22;;;;;;;;;;;22.00;99.90;;;;;;4994524;28;20292;-73
2021/10/03 11:02:49;;;;;;;;;;;22.10;99.90;;;;;;4994771;28;19925;-74
2021/10/03 11:05:43;;;;;;;;;;;22.30;99.90;;;;;;5012431;28;19925;-74
2021/10/03 11:08:11;;;;;;;;;;;22.50;99.90;;;;;;4978517;28;19932;-73
2021/10/03 11:10:59;;;;;;;;;;;22.50;99.90;;;;;;4995050;28;20389;-73
2021/10/03 11:13:41;;;;;;;;;;;22.50;99.90;;;;;;5011379;28;19933;-74
2021/10/03 11:16:27;;;;;;;;;;;22.50;99.90;;;;;;4994613;28;19944;-74
2021/10/03 11:19:10;;;;;;;;;;;22.60;99.90;;;;;;5012635;28;20404;-74
2021/10/03 11:21:39;;;;;;;;;;;22.60;99.90;;;;;;4994640;28;19972;-74
2021/10/03 11:24:08;;;;;;;;;;;22.50;99.90;;;;;;4994582;28;20372;-74
2021/10/03 11:26:48;;;;;;;;;;;22.60;99.90;;;;;;5012387;28;19925;-74
2021/10/03 11:29:15;;;;;;;;;;;22.50;99.90;;;;;;4995241;28;20316;-74
2021/10/03 11:31:55;;;;;;;;;;;22.50;99.90;;;;;;4994453;28;19959;-73
2021/10/03 11:34:25;;;;;;;;;;;22.40;99.90;;;;;;4994458;28;20395;-74
2021/10/03 11:36:57;;;;;;;;;;;22.30;99.90;;;;;;4994804;28;19964;-74
2021/10/03 11:39:33;;;;;;;;;;;22.30;99.90;;;;;;4979423;28;19925;-74
2021/10/03 11:42:00;;;;;;;;;;;22.20;99.90;;;;;;4994032;28;19926;-73
2021/10/03 11:44:32;;;;;;;;;;;22.10;99.90;;;;;;4994975;28;19975;-72
2021/10/03 11:47:01;;;;;;;;;;;22.00;99.90;;;;;;4994596;28;19925;-74
2021/10/03 11:49:29;;;;;;;;;;;21.90;99.90;;;;;;4994413;28;19926;-72
2021/10/03 11:52:02;;;;;;;;;;;21.90;99.90;;;;;;4995474;28;19932;-73
2021/10/03 11:54:42;;;;;;;;;;;21.80;99.90;;;;;;4994225;28;19926;-74
2021/10/03 11:57:27;;;;;;;;;;;21.90;99.90;;;;;;4979173;28;19984;-74
2021/10/03 12:00:08;;;;;;;;;;;21.90;99.90;;;;;;4979223;28;19934;-72
2021/10/03 12:02:42;;;;;;;;;;;22.10;99.90;;;;;;4993714;28;19948;-74
2021/10/03 12:05:10;;;;;;;;;;;22.20;99.90;;;;;;4994020;28;19926;-74
2021/10/03 12:07:41;;;;;;;;;;;22.40;99.90;;;;;;4995382;28;19925;-72
2021/10/03 12:10:14;;;;;;;;;;;22.70;99.90;;;;;;4995544;28;19925;-74
2021/10/03 12:12:46;;;;;;;;;;;23.10;99.90;;;;;;5012112;28;19929;-74
2021/10/03 12:15:31;;;;;;;;;;;23.40;99.90;;;;;;5011636;28;20305;-74
2021/10/03 12:18:03;;;;;;;;;;;23.60;99.90;;;;;;5012235;28;20324;-74
2021/10/03 12:21:05;;;;;;;;;;;23.80;99.90;;;;;;4994379;28;19994;-74
2021/10/03 12:23:49;;;;;;;;;;;24.10;99.90;;;;;;4990149;28;19926;-74
2021/10/03 12:26:21;;;;;;;;;;;24.30;99.90;;;;;;5009225;28;19925;-74
2021/10/03 12:29:01;;;;;;;;;;;24.60;99.90;;;;;;4979057;28;19926;-73
2021/10/03 12:31:35;;;;;;;;;;;24.80;99.90;;;;;;5011912;28;19929;-73
2021/10/03 12:34:07;;;;;;;;;;;24.90;99.90;;;;;;4994456;28;19939;-73
2021/10/03 12:36:54;;;;;;;;;;;25.00;99.90;;;;;;4995477;28;19926;-74
2021/10/03 12:39:41;;;;;;;;;;;25.00;99.90;;;;;;4994531;28;19925;-73
2021/10/03 12:42:17;;;;;;;;;;;25.00;99.90;;;;;;5011738;28;19961;-74
2021/10/03 12:44:44;;;;;;;;;;;24.80;99.90;;;;;;4994033;28;19925;-73
2021/10/03 12:47:12;;;;;;;;;;;24.80;99.90;;;;;;5011912;28;19942;-74
2021/10/03 12:49:39;;;;;;;;;;;24.70;99.90;;;;;;5010802;28;19933;-73
2021/10/03 12:52:08;;;;;;;;;;;24.80;99.90;;;;;;4994274;28;19931;-73
2021/10/03 12:54:35;;;;;;;;;;;24.80;99.90;;;;;;4997498;28;19930;-74
2021/10/03 12:57:07;;;;;;;;;;;24.90;99.90;;;;;;4997916;28;20408;-73
2021/10/03 12:59:34;;;;;;;;;;;24.80;99.90;;;;;;5015397;28;19926;-73
2021/10/03 13:02:06;;;;;;;;;;;24.80;99.90;;;;;;5015096;28;19942;-73
2021/10/03 13:04:33;;;;;;;;;;;24.80;99.90;;;;;;4997538;28;20315;-73
2021/10/03 13:07:06;;;;;;;;;;;24.80;99.90;;;;;;4998469;28;19940;-74
2021/10/03 13:09:39;;;;;;;;;;;24.60;99.90;;;;;;4998469;28;20277;-74
2021/10/03 13:12:10;;;;;;;;;;;24.50;99.90;;;;;;4998282;28;19954;-73
2021/10/03 13:14:42;;;;;;;;;;;24.40;99.90;;;;;;4998267;28;20410;-73
2021/10/03 13:17:14;;;;;;;;;;;24.20;99.90;;;;;;4997258;28;19930;-74
2021/10/03 13:19:46;;;;;;;;;;;24.00;99.90;;;;;;4997422;28;19931;-73
2021/10/03 13:22:12;;;;;;;;;;;23.70;99.90;;;;;;5014637;28;19929;-73
2021/10/03 13:24:45;;;;;;;;;;;23.60;99.90;;;;;;4997845;28;19933;-73
2021/10/03 13:27:11;;;;;;;;;;;23.50;99.90;;;;;;4997112;28;19925;-74
2021/10/03 13:29:43;;;;;;;;;;;23.40;99.90;;;;;;5014696;28;19925;-74
2021/10/03 13:32:18;;;;;;;;;;;23.60;99.90;;;;;;4997813;28;19932;-73
2021/10/03 13:34:50;;;;;;;;;;;23.70;99.90;;;;;;4996641;28;19925;-73
2021/10/03 13:37:22;;;;;;;;;;;23.80;99.90;;;;;;4997194;28;20414;-73
2021/10/03 13:39:54;;;;;;;;;;;23.80;99.90;;;;;;4996924;28;19925;-73
2021/10/03 13:42:21;;;;;;;;;;;23.80;99.90;;;;;;4996767;28;20309;-74
2021/10/03 13:44:48;;;;;;;;;;;23.70;99.90;;;;;;4996444;28;19926;-74
2021/10/03 13:47:15;;;;;;;;;;;23.50;99.90;;;;;;4996714;28;19932;-73
2021/10/03 13:49:48;;;;;;;;;;;23.20;99.90;;;;;;5014327;28;19929;-73
2021/10/03 13:52:14;;;;;;;;;;;23.00;99.90;;;;;;4996954;28;19925;-73
2021/10/03 13:54:41;;;;;;;;;;;22.80;99.90;;;;;;5013899;28;19926;-73
2021/10/03 13:57:13;;;;;;;;;;;22.60;99.90;;;;;;5014081;28;19929;-73
2021/10/03 13:59:40;;;;;;;;;;;22.50;99.90;;;;;;4996427;28;20463;-73
2021/10/03 14:02:07;;;;;;;;;;;22.30;99.90;;;;;;4996167;28;19926;-73
2021/10/03 14:04:38;;;;;;;;;;;22.20;99.90;;;;;;5013205;28;20016;-74
2021/10/03 14:07:05;;;;;;;;;;;22.00;99.90;;;;;;4996466;28;19972;-74
2021/10/03 14:09:37;;;;;;;;;;;21.90;99.90;;;;;;4996088;28;19929;-73
2021/10/03 14:12:09;;;;;;;;;;;21.70;99.90;;;;;;5013746;28;19925;-74
2021/10/03 14:14:41;;;;;;;;;;;21.60;99.90;;;;;;4996458;28;19929;-72
2021/10/03 14:17:12;;;;;;;;;;;21.50;99.90;;;;;;5013695;28;19929;-73
2021/10/03 14:19:39;;;;;;;;;;;21.40;99.90;;;;;;4996040;28;19952;-73
2021/10/03 14:22:11;;;;;;;;;;;21.40;99.90;;;;;;5013201;28;20422;-73
2021/10/03 14:24:43;;;;;;;;;;;21.40;99.90;;;;;;5013204;28;19937;-72
2021/10/03 14:27:15;;;;;;;;;;;21.30;99.90;;;;;;5013485;28;19932;-74
2021/10/03 14:29:47;;;;;;;;;;;21.30;99.90;;;;;;4996834;28;19925;-74
2021/10/03 14:32:14;;;;;;;;;;;21.30;99.90;;;;;;4995504;28;19971;-73
2021/10/03 14:34:46;;;;;;;;;;;21.20;99.90;;;;;;4995392;28;19925;-74
2021/10/03 14:37:18;;;;;;;;;;;21.20;99.90;;;;;;4995374;28;19925;-73
2021/10/03 14:39:50;;;;;;;;;;;21.10;99.90;;;;;;4996217;28;20475;-73
2021/10/03 14:42:21;;;;;;;;;;;21.10;99.90;;;;;;5012696;28;20032;-75